Omaha, NE

9:15 AM CDT on July 06, 2015 (GMT -0500)
Eppley Airfield | | Change Station
CLOSE
Current Station
Airport
Location: Omaha,
Elevation: 981 ft
Nearby Weather Stations

Elev 981 ft 41.31 °N, 95.90 °W | Updated 23 minutes ago

Rain
Rain
74 °F
Feels Like 74 °F
N
5
Wind Variable Wind from NNW

Today
High -- | Low -- °F
--% Chance of Precip.
Yesterday
High -- | Low -- °F
Precip. -- in
5:56 AM 8:59 PM
Waning Gibbous, 75% visible
Pressure 29.84 in
Visibility 10.0 miles
Clouds Few 1000 ft
Few 5000 ft
Scattered Clouds 11000 ft
Overcast 15000 ft
Dew Point 71 °F
Humidity 91%
Rainfall 0.34 in
Snow Depth Not available.
UV 1 out of 12
Pollen 1.60 out of 12
Air Quality Not available.
Flu Activity Not available.
METAR KOMA 061352Z 34004KT 10SM -RA FEW010 FEW050 SCT110 OVC150 23/22 A2987 RMK AO2 RAE13B44 SLP105 P0000 T02330217

More Conditions Fewer Conditions

Pressure 29.84 in
Visibility 10.0 miles
Clouds Few 1000 ft
Few 5000 ft
Scattered Clouds 11000 ft
Overcast 15000 ft
Dew Point 71 °F
Humidity 91%
Rainfall 0.34 in
Snow Depth Not available.
UV 1 out of 12
Pollen 1.60 out of 12
Air Quality Not available.
Flu Activity Not available.
METAR KOMA 061352Z 34004KT 10SM -RA FEW010 FEW050 SCT110 OVC150 23/22 A2987 RMK AO2 RAE13B44 SLP105 P0000 T02330217

More Conditions Fewer Conditions

10-Day Weather Forecast

×

Almanac

Astronomy

Jul. 06, 2015 Rise Set
Actual Time
Civil Twilight
Nautical Twilight
Astronomical Twilight
Moon
Length of Visible Light
Length of Day
Tomorrow will be .
, % of the Moon is Illuminated

Today's Extremes

State Highs State Lows

Community

WunderPhotos

Upload Photos

1,835,559 photos uploaded!

WunderBlogs® & News

Nearby

Air Quality

  Air Quality AQ Index Pollutant
Not available.

Snow Depth

Station Depth Elevation

Earthquake Activity

City Distance Mag. Time & Date
Minimum magnitude displayed is 2.5.

Coastal Water Temperatures

Place Temperature

Stations

Nearby Weather Stations

Station Location Temp. Windchill Dew Point Humidity Wind Precip. Elev Updated Type